createdAt,value
2023-03-23T16:00:19.458Z,2.83
2023-03-23T16:03:27.474Z,2.80
2023-03-23T16:06:32.751Z,2.47
2023-03-23T16:09:34.136Z,1.77
2023-03-23T16:12:35.594Z,1.90
2023-03-23T16:15:37.071Z,2.20
2023-03-23T16:18:38.499Z,2.13
2023-03-23T16:21:41.317Z,2.10
2023-03-23T16:24:42.707Z,2.40
2023-03-23T16:27:48.860Z,2.33
2023-03-23T16:30:51.900Z,2.70
2023-03-23T16:33:53.369Z,2.40
2023-03-23T16:36:54.742Z,2.30
2023-03-23T16:39:57.551Z,2.83
2023-03-23T16:42:59.359Z,2.70
2023-03-23T16:46:00.911Z,2.23
2023-03-23T16:49:02.318Z,2.20
2023-03-23T16:52:03.833Z,2.03
2023-03-23T16:55:06.741Z,2.50
2023-03-23T17:01:13.490Z,2.20
2023-03-23T17:04:15.610Z,2.57
2023-03-23T17:07:17.225Z,2.47
2023-03-23T17:10:18.893Z,2.20
2023-03-23T17:13:20.408Z,2.90
2023-03-23T17:16:21.825Z,3.10
2023-03-23T17:19:23.321Z,3.70
2023-03-23T17:22:25.697Z,3.83
2023-03-23T17:25:28.182Z,3.40
2023-03-23T17:28:29.608Z,3.50
2023-03-23T17:31:31.110Z,4.10
2023-03-23T17:34:32.602Z,3.80
2023-03-23T17:37:36.262Z,3.67
2023-03-23T17:40:37.768Z,3.17
2023-03-23T17:43:42.534Z,4.03
2023-03-23T17:46:45.410Z,3.90
2023-03-23T17:49:47.713Z,3.43
2023-03-23T17:52:49.850Z,3.43
2023-03-23T17:55:52.739Z,3.70
2023-03-23T17:58:54.507Z,4.07
2023-03-23T18:01:55.960Z,4.60
2023-03-23T18:04:58.139Z,4.50
2023-03-23T18:07:59.535Z,4.43
2023-03-23T18:11:01.276Z,4.60
2023-03-23T18:14:03.043Z,4.40
2023-03-23T18:17:05.291Z,4.60
2023-03-23T18:20:08.608Z,4.10
2023-03-23T18:23:10.795Z,4.27
2023-03-23T18:26:13.826Z,3.67
2023-03-23T18:29:15.314Z,3.87
2023-03-23T18:32:16.936Z,4.07
2023-03-23T18:35:18.582Z,4.43
2023-03-23T18:38:19.994Z,4.00
2023-03-23T18:41:21.425Z,3.90
2023-03-23T18:44:22.894Z,3.80
2023-03-23T18:47:24.368Z,4.87
2023-03-23T18:50:25.764Z,5.53
2023-03-23T18:53:28.189Z,5.80
2023-03-23T18:56:29.708Z,12.17
2023-03-23T18:59:33.719Z,10.83
2023-03-23T19:02:36.050Z,10.63
2023-03-23T19:05:39.493Z,10.50
2023-03-23T19:08:41.050Z,8.97
2023-03-23T19:11:47.204Z,8.37
2023-03-23T19:14:48.688Z,8.10
2023-03-23T19:17:55.792Z,7.43
2023-03-23T19:24:03.364Z,6.17
2023-03-23T19:27:05.642Z,5.17
2023-03-23T19:30:07.987Z,5.07
2023-03-23T19:33:09.451Z,4.10
2023-03-23T19:36:13.203Z,4.03
2023-03-23T19:39:15.216Z,3.67
2023-03-23T19:42:18.446Z,3.33
2023-03-23T19:45:20.276Z,2.90
2023-03-23T19:48:21.686Z,3.33
2023-03-23T19:51:23.546Z,3.47
2023-03-23T19:54:25.156Z,3.37
2023-03-23T19:57:26.850Z,3.40
2023-03-23T20:00:28.817Z,3.50
2023-03-23T20:03:30.194Z,3.37
2023-03-23T20:06:31.784Z,3.50
2023-03-23T20:09:33.334Z,3.63
2023-03-23T20:12:34.834Z,3.60
2023-03-23T20:15:36.922Z,3.57
2023-03-23T20:18:38.617Z,3.80
2023-03-23T20:21:40.272Z,3.50
2023-03-23T20:24:42.168Z,3.83
2023-03-23T20:27:45.330Z,2.97
2023-03-23T20:30:47.114Z,3.27
2023-03-23T20:34:12.866Z,3.47
2023-03-23T20:37:16.279Z,3.30
2023-03-23T20:40:18.556Z,3.10
2023-03-23T20:43:19.975Z,3.50
2023-03-23T20:46:22.019Z,4.20
2023-03-23T20:49:24.739Z,3.93
2023-03-23T20:52:26.258Z,3.93
2023-03-23T20:55:27.660Z,4.83
2023-03-23T20:58:29.788Z,4.17
2023-03-23T21:01:33.108Z,3.83
2023-03-23T21:04:37.102Z,3.90
2023-03-23T21:07:39.193Z,3.50
2023-03-23T21:10:40.930Z,3.43
2023-03-23T21:13:42.603Z,3.37
2023-03-23T21:16:44.127Z,3.20
2023-03-23T21:19:46.971Z,3.90
2023-03-23T21:22:48.374Z,3.80
2023-03-23T21:25:50.334Z,4.30
2023-03-23T21:28:54.008Z,3.93
2023-03-23T21:32:07.787Z,4.57
2023-03-23T21:35:10.179Z,5.60
2023-03-23T21:38:14.268Z,4.80
2023-03-23T21:41:15.907Z,4.77
2023-03-23T21:44:18.073Z,5.40
2023-03-23T21:47:19.502Z,5.53
2023-03-23T21:50:21.925Z,5.00
2023-03-23T21:53:25.342Z,5.27
2023-03-23T21:56:27.896Z,5.07
2023-03-23T21:59:29.354Z,5.23
2023-03-23T22:02:30.926Z,4.80
2023-03-23T22:05:32.375Z,5.13
2023-03-23T22:08:33.774Z,4.87
2023-03-23T22:11:37.272Z,4.80
2023-03-23T22:14:39.127Z,4.50
2023-03-23T22:17:41.121Z,4.20
2023-03-23T22:20:42.513Z,3.90
2023-03-23T22:23:45.257Z,4.10
2023-03-23T22:26:47.016Z,3.83
2023-03-23T22:29:48.420Z,3.40
2023-03-23T22:32:49.891Z,3.80
2023-03-23T22:35:51.343Z,3.50
2023-03-23T22:38:54.890Z,3.30
2023-03-23T22:41:56.470Z,2.90
2023-03-23T22:44:57.879Z,2.80
2023-03-23T22:47:59.741Z,2.80
2023-03-23T22:51:01.398Z,2.53
2023-03-23T22:54:04.258Z,3.40
2023-03-23T22:57:05.891Z,2.90
2023-03-23T23:00:14.008Z,3.10
2023-03-23T23:03:16.502Z,2.80
2023-03-23T23:06:19.118Z,2.80
2023-03-23T23:09:22.048Z,3.20
2023-03-23T23:12:24.150Z,3.23
2023-03-23T23:15:26.266Z,3.10
2023-03-23T23:18:28.072Z,3.17
2023-03-23T23:21:29.514Z,3.40
2023-03-23T23:24:31.141Z,3.20
2023-03-23T23:27:33.241Z,2.93
2023-03-23T23:30:35.012Z,2.50
2023-03-23T23:33:36.441Z,3.00
2023-03-23T23:36:38.323Z,2.80
2023-03-23T23:39:41.215Z,3.07
2023-03-23T23:42:44.492Z,3.20
2023-03-23T23:45:45.967Z,3.27
2023-03-23T23:48:47.414Z,2.70
2023-03-23T23:51:48.877Z,2.67
2023-03-23T23:54:51.404Z,3.10
2023-03-23T23:57:53.376Z,2.50
